Time;durP1;ratioP1;P1;durP2;ratioP2;P2;SDS_P1;SDS_P2;PMS_P1;PMS_P2;Temp;Humidity;BMP_temperature;BMP_pressure;BME280_temperature;BME280_humidity;BME280_pressure;Samples;Min_cycle;Max_cycle;Signal;HPM_P1;HPM_P2
2022/08/16 00:00:49;;;;;;;0.00;0.00;;;;;;;21.25;57.73;100244.28;7367916;19;20002;-61
2022/08/16 00:03:15;;;;;;;0.00;0.00;;;;;;;21.22;57.76;100241.84;7368409;19;20014;-61
2022/08/16 00:05:42;;;;;;;0.00;0.00;;;;;;;21.18;57.63;100232.41;7368760;19;20006;-61
2022/08/16 00:08:07;;;;;;;0.00;0.00;;;;;;;21.13;57.86;100231.91;7369429;19;20684;-61
2022/08/16 00:10:33;;;;;;;0.00;0.00;;;;;;;21.07;57.59;100229.72;7367213;19;20011;-61
2022/08/16 00:13:00;;;;;;;0.08;0.08;;;;;;;20.90;57.77;100215.88;7368601;19;20006;-62
2022/08/16 00:15:39;;;;;;;0.00;0.00;;;;;;;21.01;56.99;100235.47;7367717;19;20649;-61
2022/08/16 00:18:05;;;;;;;0.00;0.00;;;;;;;20.94;58.41;100238.59;7369611;19;20186;-61
2022/08/16 00:20:32;;;;;;;0.00;0.00;;;;;;;20.90;58.17;100220.34;7366764;19;20026;-61
2022/08/16 00:22:58;;;;;;;0.00;0.00;;;;;;;20.87;58.13;100221.41;7368474;19;20019;-61
2022/08/16 00:25:24;;;;;;;0.10;0.10;;;;;;;20.84;58.24;100216.34;7367453;19;20006;-61
2022/08/16 00:27:51;;;;;;;0.00;0.00;;;;;;;20.80;58.17;100225.47;7368004;19;20126;-61
2022/08/16 00:30:19;;;;;;;0.00;0.00;;;;;;;20.77;58.64;100220.38;7367143;19;20010;-61
2022/08/16 00:32:46;;;;;;;0.00;0.00;;;;;;;20.77;58.77;100219.53;7366469;19;20022;-60
2022/08/16 00:35:17;;;;;;;0.00;0.00;;;;;;;20.72;58.58;100222.53;7368778;19;20111;-61
2022/08/16 00:37:44;;;;;;;0.00;0.00;;;;;;;20.57;59.15;100208.56;7368002;19;20508;-62
2022/08/16 00:40:11;;;;;;;0.00;0.00;;;;;;;20.64;59.11;100224.91;7364558;19;20052;-61
2022/08/16 00:42:36;;;;;;;0.00;0.00;;;;;;;20.59;59.21;100216.44;7368528;19;20007;-61
2022/08/16 00:45:40;;;;;;;0.00;0.00;;;;;;;20.57;58.33;100219.16;7367662;19;20025;-61
2022/08/16 00:48:10;;;;;;;0.00;0.00;;;;;;;20.53;59.46;100222.16;7263828;19;2004237;-61
2022/08/16 00:50:38;;;;;;;0.00;0.00;;;;;;;20.50;59.91;100217.94;7365794;19;20026;-61
2022/08/16 00:53:10;;;;;;;0.00;0.00;;;;;;;20.46;59.21;100222.59;7366359;19;20100;-60
2022/08/16 00:55:39;;;;;;;0.00;0.00;;;;;;;20.43;59.82;100217.50;7367080;19;20007;-62
2022/08/16 00:58:08;;;;;;;0.00;0.00;;;;;;;20.36;59.93;100216.22;7368532;19;20014;-60
2022/08/16 01:00:33;;;;;;;0.00;0.00;;;;;;;20.41;59.98;100230.00;7365789;19;20027;-61
2022/08/16 01:03:02;;;;;;;0.00;0.00;;;;;;;20.37;59.93;100222.38;7367225;19;20471;-61
2022/08/16 01:05:29;;;;;;;0.00;0.00;;;;;;;20.32;60.06;100214.72;7364300;19;20006;-61
2022/08/16 01:07:56;;;;;;;0.00;0.00;;;;;;;20.36;59.81;100221.53;7366938;19;20106;-61
2022/08/16 01:10:24;;;;;;;0.00;0.00;;;;;;;20.35;59.75;100227.78;7366449;19;20010;-61
2022/08/16 01:12:50;;;;;;;0.00;0.00;;;;;;;20.30;59.97;100237.88;7366881;19;20043;-61
2022/08/16 01:15:16;;;;;;;0.00;0.00;;;;;;;20.26;59.67;100231.09;7366818;19;20018;-61
2022/08/16 01:17:45;;;;;;;0.00;0.00;;;;;;;20.23;60.03;100239.28;7365874;19;20011;-61
2022/08/16 01:20:11;;;;;;;0.00;0.00;;;;;;;20.18;59.95;100238.75;7367768;19;20018;-61
2022/08/16 01:23:05;;;;;;;0.00;0.00;;;;;;;20.16;58.44;100240.66;7366870;19;20018;-61
2022/08/16 01:25:35;;;;;;;0.00;0.00;;;;;;;19.83;59.79;100202.28;7263351;19;2004836;-61
2022/08/16 01:28:05;;;;;;;0.00;0.00;;;;;;;20.13;60.00;100252.31;7366250;19;20039;-61
2022/08/16 01:30:36;;;;;;;0.00;0.00;;;;;;;20.12;60.05;100260.34;7364025;19;20436;-60
2022/08/16 01:33:04;;;;;;;0.00;0.00;;;;;;;20.10;59.80;100262.28;7366233;19;20790;-60
2022/08/16 01:35:34;;;;;;;0.10;0.10;;;;;;;20.12;59.58;100260.34;7366828;19;20018;-61
2022/08/16 01:38:14;;;;;;;0.00;0.00;;;;;;;20.03;59.21;100239.81;7364026;19;20009;-62
2022/08/16 01:40:39;;;;;;;0.00;0.00;;;;;;;20.08;60.31;100256.25;7363223;19;20007;-61
2022/08/16 01:43:07;;;;;;;0.00;0.00;;;;;;;20.06;60.26;100255.50;7367157;19;20034;-61
2022/08/16 01:45:32;;;;;;;0.00;0.00;;;;;;;20.05;60.01;100264.41;7366712;19;20572;-61
2022/08/16 01:47:58;;;;;;;0.00;0.00;;;;;;;20.03;59.98;100261.03;7366940;19;20236;-61
2022/08/16 01:50:23;;;;;;;0.00;0.00;;;;;;;19.99;60.01;100260.38;7363878;19;20023;-62
2022/08/16 01:52:49;;;;;;;0.00;0.00;;;;;;;19.96;60.36;100266.72;7367054;19;21334;-61
2022/08/16 01:55:22;;;;;;;0.00;0.00;;;;;;;19.88;59.76;100253.16;7365571;19;20011;-62
2022/08/16 01:57:48;;;;;;;0.00;0.00;;;;;;;19.93;60.33;100272.25;7357740;19;20015;-61
2022/08/16 02:00:14;;;;;;;0.00;0.00;;;;;;;19.86;60.00;100263.00;7362037;19;20141;-61
2022/08/16 02:02:41;;;;;;;0.00;0.00;;;;;;;19.91;60.29;100279.44;7362851;19;20017;-61
2022/08/16 02:05:08;;;;;;;0.00;0.00;;;;;;;19.90;60.22;100277.75;7363561;19;20359;-61
2022/08/16 02:07:33;;;;;;;0.00;0.00;;;;;;;19.90;60.12;100272.44;7362230;19;20007;-61
2022/08/16 02:09:59;;;;;;;0.10;0.10;;;;;;;19.89;60.39;100280.50;7362683;19;20010;-60
2022/08/16 02:12:28;;;;;;;0.00;0.00;;;;;;;19.89;60.31;100284.00;7362801;19;20095;-61
2022/08/16 02:14:54;;;;;;;0.00;0.00;;;;;;;19.88;59.86;100278.81;7361200;19;20018;-62
2022/08/16 02:17:19;;;;;;;0.00;0.00;;;;;;;19.86;60.07;100281.56;7363183;19;20018;-61
2022/08/16 02:19:47;;;;;;;0.00;0.00;;;;;;;19.86;60.21;100280.72;7363195;19;20348;-61
2022/08/16 02:22:17;;;;;;;0.00;0.00;;;;;;;19.85;59.88;100279.88;7362355;19;21258;-62
2022/08/16 02:24:43;;;;;;;0.00;0.00;;;;;;;19.83;60.09;100287.09;7362410;19;20116;-61
2022/08/16 02:27:09;;;;;;;0.00;0.00;;;;;;;19.72;60.27;100268.41;7361604;19;20010;-61
2022/08/16 02:29:35;;;;;;;0.00;0.00;;;;;;;19.81;59.99;100288.97;7362038;19;20574;-61
2022/08/16 02:32:00;;;;;;;0.00;0.00;;;;;;;19.79;59.99;100285.59;7360322;19;20006;-61
2022/08/16 02:34:26;;;;;;;0.00;0.00;;;;;;;19.76;60.35;100285.78;7362492;19;20095;-61
2022/08/16 02:36:51;;;;;;;0.00;0.00;;;;;;;19.77;59.85;100287.50;7360459;19;20006;-61
2022/08/16 02:39:18;;;;;;;0.00;0.00;;;;;;;19.75;60.15;100288.53;7362835;19;20047;-61
2022/08/16 02:41:47;;;;;;;0.10;0.10;;;;;;;19.76;59.88;100287.59;7360463;19;20666;-60
2022/08/16 02:44:13;;;;;;;0.00;0.00;;;;;;;19.74;59.91;100286.84;7361021;19;20410;-61
2022/08/16 02:46:40;;;;;;;0.10;0.10;;;;;;;19.74;59.63;100287.69;7361111;19;20030;-61
2022/08/16 02:49:07;;;;;;;0.00;0.00;;;;;;;19.71;59.56;100293.19;7363312;19;20006;-61
2022/08/16 02:51:33;;;;;;;0.00;0.00;;;;;;;19.71;59.58;100287.88;7363755;19;20014;-61
2022/08/16 02:53:58;;;;;;;0.00;0.00;;;;;;;19.69;59.43;100298.59;7369890;19;20049;-61
2022/08/16 02:56:24;;;;;;;0.00;0.00;;;;;;;19.66;59.26;100295.28;7368893;19;20035;-61
2022/08/16 02:58:51;;;;;;;0.00;0.00;;;;;;;19.64;58.95;100297.22;7368550;19;20035;-62
2022/08/16 03:01:21;;;;;;;0.00;0.00;;;;;;;19.61;59.19;100297.41;7367321;19;20081;-61
2022/08/16 03:03:47;;;;;;;0.00;0.00;;;;;;;19.56;59.38;100291.53;7359884;19;20013;-62
2022/08/16 03:06:13;;;;;;;0.00;0.00;;;;;;;19.53;59.49;100299.69;7368205;19;20014;-61
2022/08/16 03:08:39;;;;;;;0.00;0.00;;;;;;;19.50;59.23;100306.03;7371689;19;20027;-60
2022/08/16 03:11:05;;;;;;;0.00;0.00;;;;;;;19.49;59.61;100303.50;7367345;19;20056;-62
2022/08/16 03:13:31;;;;;;;0.00;0.00;;;;;;;19.47;59.73;100300.13;7367848;19;20022;-61
2022/08/16 03:15:57;;;;;;;0.00;0.00;;;;;;;19.37;59.33;100292.78;7366435;19;20003;-61
2022/08/16 03:18:22;;;;;;;0.00;0.00;;;;;;;19.38;59.18;100297.09;7363677;19;20091;-60
2022/08/16 03:20:48;;;;;;;0.00;0.00;;;;;;;19.44;59.38;100307.28;7366853;19;20006;-61
2022/08/16 03:23:14;;;;;;;0.00;0.00;;;;;;;19.31;59.10;100293.19;7369018;19;20352;-61
2022/08/16 03:25:39;;;;;;;0.00;0.00;;;;;;;19.41;59.15;100307.50;7368483;19;20010;-61
2022/08/16 03:28:06;;;;;;;0.00;0.00;;;;;;;19.36;58.76;100303.44;7369750;19;20440;-61
2022/08/16 03:30:33;;;;;;;0.10;0.10;;;;;;;19.29;59.00;100296.84;7368568;19;20092;-61
2022/08/16 03:32:59;;;;;;;0.00;0.00;;;;;;;19.25;58.88;100305.94;7368988;19;20780;-61
2022/08/16 03:35:27;;;;;;;0.00;0.00;;;;;;;19.31;59.01;100319.66;7369523;19;20042;-61
2022/08/16 03:37:59;;;;;;;0.00;0.00;;;;;;;19.29;59.06;100315.38;7369758;19;20013;-62
2022/08/16 03:40:25;;;;;;;0.00;0.00;;;;;;;19.19;58.81;100313.34;7369799;19;20010;-61
2022/08/16 03:42:51;;;;;;;0.00;0.00;;;;;;;19.21;59.21;100318.56;7371289;19;20023;-61
2022/08/16 03:45:17;;;;;;;0.00;0.00;;;;;;;19.19;59.12;100320.44;7369702;19;20020;-62
2022/08/16 03:47:45;;;;;;;0.00;0.00;;;;;;;19.18;59.09;100321.38;7364855;19;22511;-61
2022/08/16 03:50:11;;;;;;;0.10;0.10;;;;;;;19.15;58.84;100316.28;7368766;19;20013;-61
2022/08/16 03:52:37;;;;;;;0.08;0.08;;;;;;;19.12;58.92;100327.06;7369385;19;22375;-62
2022/08/16 03:55:04;;;;;;;0.00;0.00;;;;;;;19.11;58.89;100330.66;7366955;19;20010;-61
2022/08/16 03:57:30;;;;;;;0.00;0.00;;;;;;;18.95;59.34;100308.75;7368708;19;20043;-61
2022/08/16 03:59:56;;;;;;;0.00;0.00;;;;;;;19.06;59.04;100330.09;7366980;19;20699;-62
2022/08/16 04:02:21;;;;;;;0.00;0.00;;;;;;;19.05;59.05;100331.03;7366876;19;20006;-60
2022/08/16 04:04:47;;;;;;;0.00;0.00;;;;;;;19.03;59.39;100325.88;7369548;19;20031;-61
2022/08/16 04:07:14;;;;;;;0.00;0.00;;;;;;;19.03;59.31;100335.59;7369241;19;21127;-62
2022/08/16 04:09:40;;;;;;;0.00;0.00;;;;;;;18.87;59.08;100312.75;7368095;19;20011;-61
2022/08/16 04:12:07;;;;;;;0.00;0.00;;;;;;;18.99;59.43;100332.28;7368460;19;20450;-59
2022/08/16 04:14:33;;;;;;;0.10;0.10;;;;;;;18.99;59.29;100332.28;7368094;19;20013;-61
2022/08/16 04:16:59;;;;;;;0.00;0.00;;;;;;;18.97;59.15;100328.06;7369216;19;20089;-61
2022/08/16 04:19:26;;;;;;;0.00;0.00;;;;;;;18.91;59.35;100321.38;7367965;19;20874;-62
2022/08/16 04:21:52;;;;;;;0.00;0.00;;;;;;;18.95;59.61;100329.94;7367958;19;20777;-61
2022/08/16 04:24:18;;;;;;;0.10;0.10;;;;;;;18.93;58.98;100328.25;7368653;19;20014;-61
2022/08/16 04:26:44;;;;;;;0.00;0.00;;;;;;;18.91;59.29;100330.16;7368927;19;20007;-61
2022/08/16 04:29:12;;;;;;;0.00;0.00;;;;;;;18.89;59.41;100332.03;7368333;19;20010;-61
2022/08/16 04:31:37;;;;;;;0.00;0.00;;;;;;;18.86;59.35;100340.16;7368849;19;20006;-61
2022/08/16 04:34:03;;;;;;;0.00;0.00;;;;;;;18.67;59.06;100319.28;7367939;19;21439;-61
2022/08/16 04:36:28;;;;;;;0.00;0.00;;;;;;;18.71;59.33;100327.91;7366375;19;20037;-61
2022/08/16 04:38:55;;;;;;;0.00;0.00;;;;;;;18.78;59.04;100342.44;7367924;19;20593;-61
2022/08/16 04:41:21;;;;;;;0.00;0.00;;;;;;;18.77;59.27;100348.69;7368154;19;20010;-61
2022/08/16 04:43:47;;;;;;;0.00;0.00;;;;;;;18.76;59.50;100346.97;7368627;19;20031;-61
2022/08/16 04:46:13;;;;;;;0.00;0.00;;;;;;;18.70;59.09;100334.13;7367390;19;20014;-61
2022/08/16 04:48:40;;;;;;;0.00;0.00;;;;;;;18.75;58.92;100350.53;7368087;19;20477;-61
2022/08/16 04:51:06;;;;;;;0.00;0.00;;;;;;;18.74;59.26;100348.00;7367721;19;20019;-62
2022/08/16 04:53:32;;;;;;;0.00;0.00;;;;;;;18.73;59.16;100351.59;7365761;19;20478;-61
2022/08/16 04:55:57;;;;;;;0.00;0.00;;;;;;;18.71;58.83;100354.34;7367408;19;20015;-61
2022/08/16 04:58:22;;;;;;;0.00;0.00;;;;;;;18.69;59.05;100350.94;7367414;19;20258;-61
2022/08/16 05:00:48;;;;;;;0.00;0.00;;;;;;;18.66;59.06;100353.75;7367687;19;20011;-61
2022/08/16 05:03:13;;;;;;;0.00;0.00;;;;;;;18.64;59.17;100347.69;7368244;19;20055;-62
2022/08/16 05:05:40;;;;;;;0.00;0.00;;;;;;;18.61;58.88;100340.81;7365848;19;20006;-61
2022/08/16 05:08:07;;;;;;;0.00;0.00;;;;;;;18.59;58.81;100352.41;7368053;19;20074;-61
2022/08/16 05:10:33;;;;;;;0.00;0.00;;;;;;;18.57;58.69;100356.97;7365539;19;20018;-61
2022/08/16 05:13:00;;;;;;;0.00;0.00;;;;;;;18.56;59.06;100364.03;7367528;19;20601;-61
2022/08/16 05:15:26;;;;;;;0.00;0.00;;;;;;;18.50;59.13;100351.22;7363054;19;20046;-61
2022/08/16 05:17:53;;;;;;;0.00;0.00;;;;;;;18.46;58.87;100356.78;7366901;19;20022;-61
2022/08/16 05:20:19;;;;;;;0.00;0.00;;;;;;;18.53;58.99;100366.03;7366844;19;20050;-60
2022/08/16 05:22:45;;;;;;;0.00;0.00;;;;;;;18.51;58.67;100374.06;7367338;19;20143;-61
2022/08/16 05:25:11;;;;;;;0.00;0.00;;;;;;;18.50;58.68;100371.47;7365843;19;20093;-62
2022/08/16 05:27:37;;;;;;;0.00;0.00;;;;;;;18.48;59.16;100376.03;7365888;19;20014;-61
2022/08/16 05:30:06;;;;;;;0.00;0.00;;;;;;;18.47;58.65;100385.75;7367039;19;20956;-61
2022/08/16 05:32:32;;;;;;;0.00;0.00;;;;;;;18.44;58.94;100378.00;7366237;19;20055;-61
2022/08/16 05:34:57;;;;;;;0.00;0.00;;;;;;;18.42;58.66;100385.19;7366384;19;20010;-62
2022/08/16 05:37:23;;;;;;;0.00;0.00;;;;;;;18.42;58.95;100390.47;7367051;19;20022;-60
2022/08/16 05:39:49;;;;;;;0.00;0.00;;;;;;;18.29;58.40;100369.19;7368021;19;20014;-62
2022/08/16 05:42:15;;;;;;;0.00;0.00;;;;;;;18.36;59.01;100390.84;7364532;19;20006;-60
2022/08/16 05:44:40;;;;;;;0.00;0.00;;;;;;;18.36;58.93;100396.13;7365123;19;20011;-62
2022/08/16 05:47:06;;;;;;;0.00;0.00;;;;;;;18.33;58.74;100391.88;7365502;19;20018;-61
2022/08/16 05:49:32;;;;;;;0.00;0.00;;;;;;;18.34;58.45;100398.00;7367397;19;20010;-61
2022/08/16 05:51:58;;;;;;;0.05;0.05;;;;;;;18.27;58.62;100394.88;7365644;19;20081;-61
2022/08/16 05:54:25;;;;;;;0.00;0.00;;;;;;;18.30;58.70;100413.22;7365084;19;20035;-61
2022/08/16 05:56:51;;;;;;;0.00;0.00;;;;;;;18.29;58.59;100416.78;7366286;19;20423;-61
2022/08/16 05:59:18;;;;;;;0.00;0.00;;;;;;;18.27;58.60;100402.81;7354505;19;20065;-61
2022/08/16 06:01:44;;;;;;;0.00;0.00;;;;;;;18.27;58.35;100412.53;7362413;19;20015;-61
2022/08/16 06:04:11;;;;;;;0.00;0.00;;;;;;;18.26;58.37;100416.97;7365079;19;20016;-61
2022/08/16 06:06:37;;;;;;;0.00;0.00;;;;;;;18.27;58.24;100417.81;7362156;19;20469;-62
2022/08/16 06:09:03;;;;;;;0.00;0.00;;;;;;;18.28;58.49;100419.50;7363800;19;20039;-61
2022/08/16 06:11:28;;;;;;;0.00;0.00;;;;;;;18.27;58.16;100423.97;7361171;19;20821;-61
2022/08/16 06:13:54;;;;;;;0.00;0.00;;;;;;;18.23;58.41;100425.06;7360586;19;20030;-61
2022/08/16 06:16:19;;;;;;;0.00;0.00;;;;;;;18.28;58.23;100430.94;7362005;19;20021;-61
2022/08/16 06:18:45;;;;;;;0.10;0.10;;;;;;;18.20;58.45;100412.06;7363869;19;20021;-60
2022/08/16 06:21:12;;;;;;;0.00;0.00;;;;;;;18.32;58.13;100435.09;7360040;19;20011;-61
2022/08/16 06:23:37;;;;;;;0.00;0.00;;;;;;;18.33;58.11;100431.50;7360446;19;20397;-60
2022/08/16 06:26:04;;;;;;;0.00;0.00;;;;;;;18.36;57.89;100438.44;7365495;19;20018;-61
2022/08/16 06:28:30;;;;;;;0.00;0.00;;;;;;;18.37;57.82;100433.03;7367917;19;20014;-61
2022/08/16 06:30:55;;;;;;;0.00;0.00;;;;;;;18.26;57.53;100406.41;7369895;19;20022;-60
2022/08/16 06:33:21;;;;;;;0.00;0.00;;;;;;;18.39;57.77;100425.84;7368567;19;20031;-62
2022/08/16 06:35:46;;;;;;;0.00;0.00;;;;;;;18.42;57.64;100436.25;7368875;19;20010;-62
2022/08/16 06:38:12;;;;;;;0.00;0.00;;;;;;;18.45;57.91;100434.38;7369778;19;20014;-61
2022/08/16 06:40:37;;;;;;;0.00;0.00;;;;;;;18.49;58.06;100438.53;7369123;19;20011;-61
2022/08/16 06:43:03;;;;;;;0.00;0.00;;;;;;;18.50;57.55;100435.81;7368465;19;20720;-61
2022/08/16 06:45:29;;;;;;;0.10;0.10;;;;;;;18.55;57.18;100443.44;7366282;19;20026;-62
2022/08/16 06:47:54;;;;;;;0.00;0.00;;;;;;;18.52;57.32;100438.38;7369117;19;20026;-61
2022/08/16 06:50:21;;;;;;;0.00;0.00;;;;;;;18.54;57.29;100436.47;7368591;19;20006;-62
2022/08/16 06:52:46;;;;;;;0.00;0.00;;;;;;;18.63;56.94;100446.50;7368767;19;20010;-61
2022/08/16 06:55:14;;;;;;;0.10;0.10;;;;;;;18.66;57.00;100451.63;7368862;19;20650;-61
2022/08/16 06:57:39;;;;;;;;;;;;;;;18.73;56.87;100455.63;7368306;19;20012;-61
2022/08/16 07:00:12;;;;;;;0.00;0.00;;;;;;;18.59;56.34;100437.03;7370371;19;19954;-62
2022/08/16 07:02:43;;;;;;;0.00;0.00;;;;;;;18.71;56.29;100460.16;7368740;19;20014;-61
2022/08/16 07:05:10;;;;;;;0.00;0.00;;;;;;;18.69;56.41;100455.88;7365623;19;20027;-61
2022/08/16 07:07:36;;;;;;;0.00;0.00;;;;;;;18.54;56.31;100447.03;7368582;19;20022;-61
2022/08/16 07:10:04;;;;;;;0.00;0.00;;;;;;;18.58;56.23;100449.41;7368970;19;20082;-61
2022/08/16 07:12:29;;;;;;;0.03;0.03;;;;;;;18.65;56.35;100466.63;7366179;19;20014;-61
2022/08/16 07:14:56;;;;;;;0.00;0.00;;;;;;;18.66;56.49;100472.78;7366763;19;20018;-61
2022/08/16 07:17:21;;;;;;;0.00;0.00;;;;;;;18.67;56.65;100469.19;7365233;19;20014;-61
2022/08/16 07:19:47;;;;;;;0.00;0.00;;;;;;;18.70;56.63;100473.44;7368586;19;20490;-62
2022/08/16 07:22:14;;;;;;;0.00;0.00;;;;;;;18.67;56.10;100471.81;7362558;19;20011;-61
2022/08/16 07:24:40;;;;;;;0.00;0.00;;;;;;;18.77;55.84;100485.38;7369170;19;20470;-62
2022/08/16 07:27:05;;;;;;;0.00;0.00;;;;;;;18.77;55.73;100480.94;7365893;19;20025;-61
2022/08/16 07:29:31;;;;;;;0.10;0.10;;;;;;;18.78;56.08;100472.06;7367176;19;20006;-61
2022/08/16 07:31:58;;;;;;;0.00;0.00;;;;;;;18.81;55.42;100477.19;7367860;19;20522;-61
2022/08/16 07:34:24;;;;;;;0.00;0.00;;;;;;;18.84;55.45;100482.25;7365738;19;20097;-61
2022/08/16 07:36:49;;;;;;;0.00;0.00;;;;;;;18.85;55.82;100476.03;7364615;19;20018;-61
2022/08/16 07:39:15;;;;;;;0.00;0.00;;;;;;;18.88;55.23;100478.50;7365837;19;20483;-61
2022/08/16 07:41:42;;;;;;;0.00;0.00;;;;;;;18.90;55.23;100478.38;7367108;19;20007;-61
2022/08/16 07:44:07;;;;;;;0.03;0.03;;;;;;;18.93;55.48;100481.72;7365096;19;21214;-61
2022/08/16 07:46:33;;;;;;;0.00;0.00;;;;;;;18.95;55.24;100472.81;7367928;19;20007;-62
2022/08/16 07:48:58;;;;;;;0.00;0.00;;;;;;;18.97;55.33;100477.09;7367492;19;20027;-61
2022/08/16 07:51:24;;;;;;;0.00;0.00;;;;;;;19.00;55.27;100478.69;7364610;19;20017;-61
2022/08/16 07:53:50;;;;;;;0.00;0.00;;;;;;;19.03;54.82;100481.16;7367822;19;20022;-61
2022/08/16 07:56:18;;;;;;;0.00;0.00;;;;;;;19.07;55.00;100477.38;7366212;19;20006;-62
2022/08/16 07:58:45;;;;;;;0.00;0.00;;;;;;;19.10;55.25;100477.16;7366138;19;20016;-61
2022/08/16 08:01:12;;;;;;;0.10;0.10;;;;;;;19.07;55.22;100472.94;7365989;19;20753;-62
2022/08/16 08:03:39;;;;;;;0.00;0.00;;;;;;;19.16;55.11;100480.31;7367129;19;20010;-61
2022/08/16 08:06:05;;;;;;;0.00;0.00;;;;;;;19.25;54.72;100497.41;7357738;19;20647;-61
2022/08/16 08:08:30;;;;;;;0.00;0.00;;;;;;;19.31;54.64;100497.03;7368140;19;20010;-61
2022/08/16 08:10:55;;;;;;;0.00;0.00;;;;;;;19.35;54.54;100493.22;7366224;19;20870;-61
2022/08/16 08:13:21;;;;;;;0.00;0.00;;;;;;;19.41;54.31;100499.94;7366705;19;20703;-61
2022/08/16 08:15:47;;;;;;;0.00;0.00;;;;;;;19.43;54.70;100500.72;7366396;19;20007;-61
2022/08/16 08:18:13;;;;;;;0.00;0.00;;;;;;;19.49;54.17;100500.31;7367126;19;20808;-61
2022/08/16 08:20:43;;;;;;;0.00;0.00;;;;;;;19.52;53.34;100504.59;7366935;19;21033;-61
2022/08/16 08:23:11;;;;;;;0.00;0.00;;;;;;;19.52;53.25;100501.94;7367345;19;20010;-61
2022/08/16 08:25:41;;;;;;;0.00;0.00;;;;;;;19.54;53.63;100503.53;7366289;19;20014;-62
2022/08/16 08:28:07;;;;;;;0.00;0.00;;;;;;;19.55;53.67;100493.78;7364164;19;20109;-61
2022/08/16 08:30:33;;;;;;;0.00;0.00;;;;;;;19.55;53.80;100499.09;7363814;19;20015;-61
2022/08/16 08:32:58;;;;;;;0.00;0.00;;;;;;;19.55;53.79;100499.09;7365291;19;20554;-61
2022/08/16 08:35:24;;;;;;;0.00;0.00;;;;;;;19.54;52.84;100494.75;7365389;19;20006;-61
2022/08/16 08:37:49;;;;;;;0.00;0.00;;;;;;;19.52;53.35;100500.13;7366499;19;20039;-61
2022/08/16 08:40:15;;;;;;;0.00;0.00;;;;;;;19.51;53.69;100497.56;7365619;19;20028;-62
2022/08/16 08:42:42;;;;;;;0.00;0.00;;;;;;;19.50;53.85;100502.00;7364141;19;20049;-61
2022/08/16 08:45:09;;;;;;;0.00;0.00;;;;;;;19.55;53.83;100514.97;7355347;19;20018;-61
2022/08/16 08:47:35;;;;;;;0.00;0.00;;;;;;;19.58;53.84;100512.16;7359228;19;20023;-61
2022/08/16 08:50:06;;;;;;;0.00;0.00;;;;;;;19.63;53.56;100518.03;7366184;19;20345;-61
2022/08/16 08:52:31;;;;;;;0.00;0.00;;;;;;;19.71;53.75;100521.03;7366598;19;20019;-62
2022/08/16 08:54:57;;;;;;;0.00;0.00;;;;;;;19.79;53.65;100515.25;7366818;19;20319;-62
2022/08/16 08:57:23;;;;;;;0.00;0.00;;;;;;;19.89;53.11;100525.16;7366088;19;20018;-61
2022/08/16 08:59:49;;;;;;;0.00;0.00;;;;;;;20.00;52.22;100526.28;7365791;19;20168;-61
2022/08/16 09:02:15;;;;;;;0.00;0.00;;;;;;;20.08;52.60;100522.19;7366702;19;20927;-61
2022/08/16 09:04:43;;;;;;;0.00;0.00;;;;;;;20.18;53.00;100519.78;7362536;19;20006;-61
2022/08/16 09:07:10;;;;;;;0.00;0.00;;;;;;;20.28;52.52;100523.53;7363877;19;20036;-61
2022/08/16 09:09:35;;;;;;;0.00;0.00;;;;;;;20.38;51.90;100537.03;7367172;19;20029;-61
2022/08/16 09:12:01;;;;;;;0.00;0.00;;;;;;;20.34;51.75;100509.00;7365182;19;20006;-61
2022/08/16 09:14:27;;;;;;;0.00;0.00;;;;;;;20.54;52.00;100527.13;7363507;19;20051;-61
2022/08/16 09:16:53;;;;;;;0.00;0.00;;;;;;;20.63;51.80;100541.56;7364880;19;20078;-62
2022/08/16 09:19:21;;;;;;;0.10;0.10;;;;;;;20.68;50.68;100534.16;7365140;19;20251;-61
2022/08/16 09:21:48;;;;;;;0.00;0.00;;;;;;;20.71;51.19;100539.25;7364319;19;20403;-61
2022/08/16 09:24:17;;;;;;;0.00;0.00;;;;;;;20.75;50.80;100546.06;7365731;19;20023;-61
2022/08/16 09:26:43;;;;;;;0.00;0.00;;;;;;;20.77;50.88;100544.13;7363903;19;20097;-59
2022/08/16 09:29:08;;;;;;;0.00;0.00;;;;;;;20.79;50.08;100544.91;7362274;19;20097;-61
2022/08/16 09:31:34;;;;;;;0.00;0.00;;;;;;;20.82;50.64;100550.00;7365238;19;20661;-62
2022/08/16 09:34:01;;;;;;;0.00;0.00;;;;;;;20.86;50.52;100559.44;7364891;19;20014;-62
2022/08/16 09:36:28;;;;;;;0.00;0.00;;;;;;;20.88;50.41;100556.69;7364004;19;20039;-61
2022/08/16 09:38:55;;;;;;;0.00;0.00;;;;;;;20.93;50.39;100555.44;7366471;19;21160;-62
2022/08/16 09:41:20;;;;;;;0.10;0.10;;;;;;;20.98;50.40;100552.44;7366610;19;20454;-62
2022/08/16 09:43:46;;;;;;;0.00;0.00;;;;;;;21.06;50.32;100554.59;7365575;19;20009;-62
2022/08/16 09:46:11;;;;;;;0.00;0.00;;;;;;;21.11;50.14;100553.31;7365032;19;20003;-62
2022/08/16 09:48:40;;;;;;;0.00;0.00;;;;;;;21.21;50.11;100559.69;7367814;19;20007;-62
2022/08/16 09:51:09;;;;;;;0.00;0.00;;;;;;;21.30;48.94;100557.34;7364390;19;20010;-61
2022/08/16 09:53:35;;;;;;;0.00;0.00;;;;;;;21.39;49.80;100556.72;7366361;19;20018;-61
2022/08/16 09:56:03;;;;;;;0.10;0.10;;;;;;;21.43;49.00;100559.06;7362920;19;20110;-61
2022/08/16 09:58:29;;;;;;;0.00;0.00;;;;;;;21.49;48.84;100561.31;7363268;19;20120;-61
2022/08/16 10:00:55;;;;;;;0.00;0.00;;;;;;;21.53;48.53;100564.59;7362821;19;20806;-62
2022/08/16 10:03:21;;;;;;;0.00;0.00;;;;;;;21.61;48.71;100564.06;7366217;19;20041;-60
2022/08/16 10:05:47;;;;;;;0.00;0.00;;;;;;;21.64;48.55;100567.31;7364668;19;20017;-61
2022/08/16 10:08:15;;;;;;;0.00;0.00;;;;;;;21.62;48.77;100557.78;7365382;19;20534;-62
2022/08/16 10:13:10;;;;;;;0.00;0.00;;;;;;;21.73;48.77;100573.81;7365045;19;20574;-62
2022/08/16 10:13:28;;;;;;;0.10;0.10;;;;;;;21.73;48.55;100560.50;7364758;19;20010;-61
2022/08/16 10:15:58;;;;;;;0.00;0.00;;;;;;;21.79;48.53;100559.22;7363192;19;20030;-61
2022/08/16 10:18:26;;;;;;;0.05;0.05;;;;;;;21.85;47.82;100567.63;7361497;19;20702;-61
2022/08/16 10:20:52;;;;;;;0.10;0.10;;;;;;;21.84;48.34;100565.06;7362284;19;20002;-61
2022/08/16 10:23:17;;;;;;;0.03;0.03;;;;;;;21.82;48.06;100559.00;7360797;19;22202;-61
2022/08/16 10:25:44;;;;;;;0.10;0.10;;;;;;;21.91;47.56;100569.84;7364995;19;20010;-61
2022/08/16 10:28:11;;;;;;;0.10;0.10;;;;;;;21.89;47.70;100574.41;7362218;19;20046;-61
2022/08/16 10:30:37;;;;;;;0.03;0.03;;;;;;;21.90;47.97;100572.63;7364916;19;20597;-61
2022/08/16 10:33:04;;;;;;;0.00;0.00;;;;;;;21.93;47.77;100575.03;7363830;19;20458;-62
2022/08/16 10:35:29;;;;;;;0.10;0.10;;;;;;;21.90;47.90;100568.13;7365577;19;20015;-61
2022/08/16 10:37:55;;;;;;;0.10;0.10;;;;;;;21.98;47.49;100581.72;7363839;19;20018;-61
2022/08/16 10:40:20;;;;;;;0.10;0.10;;;;;;;22.05;47.65;100575.94;7365364;19;20019;-61
2022/08/16 10:42:48;;;;;;;0.00;0.00;;;;;;;22.11;47.18;100570.25;7362960;19;20007;-62
2022/08/16 10:45:14;;;;;;;0.00;0.00;;;;;;;22.17;47.74;100575.94;7365709;19;20022;-61
2022/08/16 10:47:39;;;;;;;0.00;0.00;;;;;;;22.24;47.74;100582.50;7363926;19;20042;-62
2022/08/16 10:50:06;;;;;;;0.00;0.00;;;;;;;22.35;47.62;100579.06;7365713;19;20049;-61
2022/08/16 10:52:32;;;;;;;0.00;0.00;;;;;;;22.46;46.94;100573.81;7363864;19;20926;-61
2022/08/16 10:54:58;;;;;;;0.00;0.00;;;;;;;22.48;46.94;100558.56;7364164;19;21263;-61
2022/08/16 10:57:26;;;;;;;0.10;0.10;;;;;;;22.60;46.86;100570.09;7363642;19;20019;-61
2022/08/16 10:59:52;;;;;;;0.10;0.10;;;;;;;22.69;46.06;100576.53;7363844;19;20041;-61
2022/08/16 11:02:18;;;;;;;0.00;0.00;;;;;;;22.71;46.12;100579.97;7362475;19;20577;-61
2022/08/16 11:04:44;;;;;;;0.00;0.00;;;;;;;22.73;45.77;100578.88;7363115;19;20018;-60
2022/08/16 11:07:10;;;;;;;0.00;0.00;;;;;;;22.67;45.40;100578.50;7362170;19;20109;-61
2022/08/16 11:09:36;;;;;;;0.00;0.00;;;;;;;22.72;45.87;100586.97;7363721;19;20007;-61
2022/08/16 11:12:03;;;;;;;0.03;0.03;;;;;;;22.70;45.41;100589.72;7364477;19;20014;-61
2022/08/16 11:14:28;;;;;;;0.03;0.03;;;;;;;22.69;45.73;100587.19;7369785;19;20018;-61
2022/08/16 11:16:53;;;;;;;0.00;0.00;;;;;;;22.69;46.03;100598.69;7370137;19;20482;-61
2022/08/16 11:19:19;;;;;;;0.00;0.00;;;;;;;22.56;45.70;100567.78;7370451;19;20134;-62
2022/08/16 11:21:45;;;;;;;0.10;0.10;;;;;;;22.71;45.13;100595.94;7369888;19;20793;-61